Time;durP1;ratioP1;P1;durP2;ratioP2;P2;SDS_P1;SDS_P2;PMS_P1;PMS_P2;Temp;Humidity;BMP_temperature;BMP_pressure;BME280_temperature;BME280_humidity;BME280_pressure;Samples;Min_cycle;Max_cycle;Signal;HPM_P1;HPM_P2
2024/02/16 00:00:24;;;;;;;2.67;1.40;;;15.10;99.90;;;;;;5049412;28;20180;-73
2024/02/16 00:02:50;;;;;;;2.40;0.90;;;15.10;99.90;;;;;;5032894;28;20587;-73
2024/02/16 00:05:16;;;;;;;3.77;1.10;;;15.10;99.90;;;;;;5049098;28;20582;-73
2024/02/16 00:07:42;;;;;;;2.90;1.23;;;15.10;99.90;;;;;;5050597;28;20593;-73
2024/02/16 00:10:14;;;;;;;2.10;0.90;;;15.10;99.90;;;;;;5058927;28;20626;-73
2024/02/16 00:12:41;;;;;;;3.40;1.30;;;15.20;99.90;;;;;;5062143;28;20188;-73
2024/02/16 00:15:08;;;;;;;4.70;1.10;;;15.10;99.90;;;;;;5052840;28;21092;-73
2024/02/16 00:17:33;;;;;;;2.60;1.10;;;15.20;99.90;;;;;;5052033;28;20689;-73
2024/02/16 00:19:59;;;;;;;3.73;1.63;;;15.20;99.90;;;;;;5031579;28;20592;-73
2024/02/16 00:22:25;;;;;;;3.73;1.27;;;15.20;99.90;;;;;;5040800;28;20172;-73
2024/02/16 00:24:51;;;;;;;2.83;0.97;;;15.20;99.90;;;;;;5031979;28;20763;-73
2024/02/16 00:27:17;;;;;;;3.73;1.00;;;15.20;99.90;;;;;;5035400;28;20957;-73
2024/02/16 00:29:43;;;;;;;2.40;1.07;;;15.20;99.90;;;;;;5034556;28;20216;-73
2024/02/16 00:32:09;;;;;;;3.93;1.10;;;15.10;99.90;;;;;;5050293;28;20208;-73
2024/02/16 00:34:36;;;;;;;2.50;0.90;;;15.10;99.90;;;;;;5050032;28;20629;-73
2024/02/16 00:37:03;;;;;;;2.70;0.97;;;15.10;99.90;;;;;;5031992;28;20584;-74
2024/02/16 00:39:29;;;;;;;2.63;1.30;;;15.10;99.90;;;;;;5032124;28;20651;-73
2024/02/16 00:41:55;;;;;;;2.10;1.00;;;15.10;99.90;;;;;;5032306;28;20586;-73
2024/02/16 00:44:21;;;;;;;2.77;1.00;;;15.10;99.90;;;;;;5015879;28;21147;-73
2024/02/16 00:46:46;;;;;;;2.50;1.20;;;15.10;99.90;;;;;;5031889;28;20586;-73
2024/02/16 00:49:12;;;;;;;2.00;1.10;;;15.10;99.90;;;;;;5049975;28;20212;-73
2024/02/16 00:51:39;;;;;;;3.50;1.17;;;15.10;99.90;;;;;;5032241;28;20188;-73
2024/02/16 00:54:05;;;;;;;2.20;0.80;;;15.10;99.90;;;;;;5050268;28;20204;-73
2024/02/16 00:56:32;;;;;;;2.83;0.93;;;15.10;99.90;;;;;;5032277;28;20595;-73
2024/02/16 00:58:58;;;;;;;2.10;1.00;;;15.10;99.90;;;;;;5032225;28;20721;-73
2024/02/16 01:01:25;;;;;;;2.60;0.80;;;15.20;99.90;;;;;;5008786;28;20620;-73
2024/02/16 01:03:54;;;;;;;2.87;1.10;;;15.20;99.90;;;;;;5003341;28;20936;-73
2024/02/16 01:06:19;;;;;;;2.43;1.10;;;15.20;99.90;;;;;;5012551;28;20600;-73
2024/02/16 01:08:46;;;;;;;3.70;1.27;;;15.20;99.90;;;;;;5037416;28;20618;-73
2024/02/16 01:11:12;;;;;;;3.50;1.13;;;15.20;99.90;;;;;;5037267;28;20181;-73
2024/02/16 01:13:42;;;;;;;2.90;1.03;;;15.20;99.90;;;;;;5048693;28;20584;-74
2024/02/16 01:16:09;;;;;;;4.23;1.10;;;15.20;99.90;;;;;;5034795;28;21014;-74
2024/02/16 01:18:37;;;;;;;4.40;1.00;;;15.20;99.90;;;;;;5021872;28;20692;-74
2024/02/16 01:21:03;;;;;;;5.23;1.40;;;15.20;99.90;;;;;;5032145;28;20686;-73
2024/02/16 01:23:29;;;;;;;2.03;0.97;;;15.20;99.90;;;;;;5032147;28;20682;-73
2024/02/16 01:25:55;;;;;;;1.70;1.00;;;15.20;99.90;;;;;;5031977;28;20580;-73
2024/02/16 01:28:21;;;;;;;5.63;1.43;;;15.20;99.90;;;;;;5055564;28;20696;-73
2024/02/16 01:30:48;;;;;;;3.90;1.00;;;15.20;99.90;;;;;;5049677;28;20547;-73
2024/02/16 01:33:14;;;;;;;2.40;0.90;;;15.20;99.90;;;;;;5039271;28;21015;-73
2024/02/16 01:35:40;;;;;;;4.10;1.50;;;15.20;99.90;;;;;;5072559;28;20694;-73
2024/02/16 01:38:06;;;;;;;4.00;1.17;;;15.20;99.90;;;;;;5072724;28;20253;-72
2024/02/16 01:40:31;;;;;;;3.03;1.20;;;15.30;99.90;;;;;;5055489;28;20172;-73
2024/02/16 01:42:57;;;;;;;2.30;0.90;;;15.30;99.90;;;;;;5055386;28;20725;-73
2024/02/16 01:45:23;;;;;;;5.63;1.77;;;15.30;99.90;;;;;;5055231;28;20180;-73
2024/02/16 01:47:50;;;;;;;4.23;1.33;;;15.30;99.90;;;;;;5054498;28;20602;-73
2024/02/16 01:50:18;;;;;;;2.50;1.60;;;15.30;99.90;;;;;;5073241;28;20173;-73
2024/02/16 01:52:47;;;;;;;3.50;1.20;;;15.20;99.90;;;;;;5050708;28;21077;-73
2024/02/16 01:55:13;;;;;;;3.30;1.00;;;15.30;99.90;;;;;;5060502;28;21133;-73
2024/02/16 01:57:40;;;;;;;3.00;0.90;;;15.30;99.90;;;;;;5075456;28;20621;-73
2024/02/16 02:00:07;;;;;;;2.93;1.03;;;15.30;99.90;;;;;;5059033;28;20677;-73
2024/02/16 02:02:35;;;;;;;2.07;1.07;;;15.30;99.90;;;;;;5038691;28;20945;-74
2024/02/16 02:05:01;;;;;;;2.03;0.90;;;15.30;99.90;;;;;;5072856;28;20581;-73
2024/02/16 02:07:27;;;;;;;1.90;0.90;;;15.30;99.90;;;;;;5054171;28;20673;-73
2024/02/16 02:09:53;;;;;;;2.30;0.80;;;15.30;99.90;;;;;;5050890;28;21626;-73
2024/02/16 02:12:19;;;;;;;2.40;1.30;;;15.30;99.90;;;;;;5065776;28;20638;-73
2024/02/16 02:14:51;;;;;;;1.60;0.90;;;15.30;99.90;;;;;;5052848;28;20727;-73
2024/02/16 02:17:18;;;;;;;1.93;1.00;;;15.40;99.90;;;;;;5034210;28;21144;-75
2024/02/16 02:19:46;;;;;;;2.10;1.00;;;15.40;99.90;;;;;;5047724;28;20615;-75
2024/02/16 02:22:19;;;;;;;1.73;0.90;;;15.40;99.90;;;;;;5068684;28;20667;-74
2024/02/16 02:24:51;;;;;;;1.90;0.70;;;15.40;99.90;;;;;;5055017;28;20610;-75
2024/02/16 02:27:17;;;;;;;2.60;1.17;;;15.30;99.90;;;;;;5072427;28;20578;-75
2024/02/16 02:29:42;;;;;;;5.50;1.40;;;15.30;99.90;;;;;;5036416;28;20645;-75
2024/02/16 02:32:09;;;;;;;2.57;0.90;;;15.20;99.90;;;;;;5038530;28;20673;-75
2024/02/16 02:34:36;;;;;;;2.33;1.00;;;15.20;99.90;;;;;;5015530;28;20280;-75
2024/02/16 02:37:03;;;;;;;2.20;1.10;;;15.10;99.90;;;;;;5033051;28;20655;-75
2024/02/16 02:39:29;;;;;;;1.90;1.10;;;15.10;99.90;;;;;;5049655;28;20643;-75
2024/02/16 02:41:55;;;;;;;2.00;1.20;;;15.10;99.90;;;;;;5052787;28;20588;-75
2024/02/16 02:44:21;;;;;;;2.17;1.00;;;15.10;99.90;;;;;;5052697;28;20632;-75
2024/02/16 02:46:47;;;;;;;2.90;1.00;;;15.10;99.90;;;;;;5030362;28;20721;-75
2024/02/16 02:49:12;;;;;;;3.60;0.97;;;15.10;99.90;;;;;;5021323;28;20216;-74
2024/02/16 02:51:38;;;;;;;2.60;1.00;;;15.10;99.90;;;;;;5035345;28;20184;-75
2024/02/16 02:54:04;;;;;;;4.47;1.17;;;15.10;99.90;;;;;;5035005;28;20173;-75
2024/02/16 02:56:30;;;;;;;3.40;1.13;;;15.10;99.90;;;;;;5018237;28;20728;-75
2024/02/16 02:58:55;;;;;;;1.80;0.80;;;15.10;99.90;;;;;;5033625;28;20651;-74
2024/02/16 03:01:22;;;;;;;3.60;1.20;;;15.10;99.90;;;;;;5052320;28;20544;-74
2024/02/16 03:03:47;;;;;;;2.83;1.00;;;15.20;99.90;;;;;;5034935;28;20185;-74
2024/02/16 03:06:18;;;;;;;4.43;1.20;;;15.20;99.90;;;;;;5053239;28;20598;-75
2024/02/16 03:08:43;;;;;;;3.23;1.00;;;15.10;99.90;;;;;;5034955;28;20611;-76
2024/02/16 03:11:09;;;;;;;3.93;1.50;;;15.00;99.90;;;;;;5035854;28;20595;-75
2024/02/16 03:13:35;;;;;;;4.27;1.03;;;14.90;99.90;;;;;;5027061;28;20587;-74
2024/02/16 03:16:02;;;;;;;1.80;0.93;;;14.90;99.90;;;;;;5051815;28;20177;-75
2024/02/16 03:18:34;;;;;;;2.70;1.10;;;14.80;99.90;;;;;;5025449;28;20202;-74
2024/02/16 03:21:00;;;;;;;1.90;0.90;;;14.80;99.90;;;;;;5047182;28;20603;-75
2024/02/16 03:23:26;;;;;;;2.77;1.57;;;14.70;99.90;;;;;;5048462;28;20591;-75
2024/02/16 03:25:52;;;;;;;3.20;1.00;;;14.70;99.90;;;;;;5033440;28;20592;-75
2024/02/16 03:28:17;;;;;;;3.93;1.00;;;14.70;99.90;;;;;;5032194;28;20217;-75
2024/02/16 03:30:44;;;;;;;2.73;1.10;;;14.70;99.90;;;;;;5027242;28;20235;-75
2024/02/16 03:33:10;;;;;;;4.50;1.10;;;14.70;99.90;;;;;;5071193;28;20234;-75
2024/02/16 03:35:36;;;;;;;2.63;1.07;;;14.70;99.90;;;;;;5071221;28;20593;-75
2024/02/16 03:38:03;;;;;;;2.27;1.23;;;14.70;99.90;;;;;;5070694;28;20662;-75
2024/02/16 03:40:29;;;;;;;2.03;1.13;;;14.60;99.90;;;;;;5053025;28;20606;-75
2024/02/16 03:42:55;;;;;;;4.07;1.10;;;14.60;99.90;;;;;;5071163;28;20621;-75
2024/02/16 03:45:21;;;;;;;2.80;1.17;;;14.60;99.90;;;;;;5071166;28;20616;-75
2024/02/16 03:47:52;;;;;;;3.50;1.20;;;14.70;99.90;;;;;;5049708;28;20596;-75
2024/02/16 03:50:18;;;;;;;1.80;1.30;;;14.70;99.90;;;;;;5038409;28;21108;-75
2024/02/16 03:52:44;;;;;;;2.37;1.00;;;14.70;99.90;;;;;;5069550;28;20598;-75
2024/02/16 03:55:09;;;;;;;4.90;1.40;;;14.70;99.90;;;;;;5070779;28;20590;-75
2024/02/16 03:57:36;;;;;;;2.90;1.67;;;14.80;99.90;;;;;;5051870;28;20750;-75
2024/02/16 04:00:02;;;;;;;2.33;1.17;;;14.80;99.90;;;;;;5036382;28;20180;-75
2024/02/16 04:02:39;;;;;;;2.27;1.60;;;14.80;99.90;;;;;;5037783;28;20575;-75
2024/02/16 04:05:05;;;;;;;3.03;1.30;;;14.80;99.90;;;;;;5052901;28;21064;-75
2024/02/16 04:07:30;;;;;;;2.43;1.43;;;14.80;99.90;;;;;;5051954;28;21205;-75
2024/02/16 04:09:56;;;;;;;2.80;1.23;;;14.80;99.90;;;;;;5070243;28;20589;-75
2024/02/16 04:12:22;;;;;;;2.97;1.20;;;14.80;99.90;;;;;;5052665;28;20211;-75
2024/02/16 04:14:47;;;;;;;3.50;1.50;;;14.80;99.90;;;;;;5070654;28;20223;-75
2024/02/16 04:17:13;;;;;;;3.70;1.20;;;14.80;99.90;;;;;;5052237;28;20761;-75
2024/02/16 04:19:39;;;;;;;4.07;1.40;;;14.80;99.90;;;;;;5021132;22;20731;-77
2024/02/16 04:22:04;;;;;;;2.90;1.20;;;14.80;99.90;;;;;;5005168;28;20265;-77
2024/02/16 04:24:30;;;;;;;2.37;1.20;;;14.90;99.90;;;;;;4996772;28;20186;-79
2024/02/16 04:26:56;;;;;;;4.10;1.10;;;14.90;99.90;;;;;;5018824;28;20185;-78
2024/02/16 04:29:21;;;;;;;2.30;1.33;;;14.90;99.90;;;;;;5013414;28;20202;-79
2024/02/16 04:31:47;;;;;;;5.27;1.27;;;14.90;99.90;;;;;;5021381;28;20181;-79
2024/02/16 04:34:14;;;;;;;2.97;1.23;;;14.90;99.90;;;;;;5016971;28;20555;-78
2024/02/16 04:36:40;;;;;;;5.20;1.20;;;14.90;99.90;;;;;;5002046;28;20178;-78
2024/02/16 04:39:06;;;;;;;3.10;1.47;;;14.90;99.90;;;;;;5030160;28;20738;-78
2024/02/16 04:41:32;;;;;;;2.13;1.10;;;14.90;99.90;;;;;;5004850;28;20677;-78
2024/02/16 04:43:58;;;;;;;2.93;1.27;;;14.90;99.90;;;;;;5011225;28;20175;-77
2024/02/16 04:46:23;;;;;;;3.50;1.20;;;14.90;99.90;;;;;;5019114;28;20240;-78
2024/02/16 04:48:49;;;;;;;3.50;1.40;;;14.90;99.90;;;;;;5012369;28;21005;-78
2024/02/16 04:51:15;;;;;;;3.30;1.40;;;14.90;99.90;;;;;;5004650;28;20178;-78
2024/02/16 04:53:40;;;;;;;2.43;1.10;;;14.90;99.90;;;;;;5012745;28;20232;-78
2024/02/16 04:56:06;;;;;;;3.17;1.40;;;14.90;99.90;;;;;;5010742;28;20643;-78
2024/02/16 04:58:32;;;;;;;2.27;1.20;;;14.90;99.90;;;;;;4995765;28;20202;-78
2024/02/16 05:00:58;;;;;;;3.20;1.37;;;14.90;99.90;;;;;;5009479;28;20237;-78
2024/02/16 05:03:24;;;;;;;3.80;1.30;;;14.90;99.90;;;;;;5007958;28;20193;-79
2024/02/16 05:05:52;;;;;;;3.73;1.00;;;15.00;99.90;;;;;;5029175;28;20173;-77
2024/02/16 05:08:17;;;;;;;2.73;1.03;;;15.00;99.90;;;;;;5021319;28;20604;-78
2024/02/16 05:10:43;;;;;;;3.40;1.20;;;15.00;99.90;;;;;;5014463;28;21172;-77
2024/02/16 05:13:11;;;;;;;3.13;1.23;;;15.00;99.90;;;;;;5014277;28;20584;-77
2024/02/16 05:15:37;;;;;;;4.20;1.40;;;15.00;99.90;;;;;;5014539;28;20552;-77
2024/02/16 05:18:02;;;;;;;2.23;1.30;;;15.00;99.90;;;;;;5015401;28;20638;-75
2024/02/16 05:20:37;;;;;;;2.33;1.20;;;15.00;99.90;;;;;;5015443;28;20242;-75
2024/02/16 05:23:03;;;;;;;3.00;1.30;;;15.00;99.90;;;;;;5028286;28;20277;-75
2024/02/16 05:25:29;;;;;;;2.53;1.10;;;15.10;99.90;;;;;;5022183;28;20758;-75
2024/02/16 05:28:04;;;;;;;2.13;1.13;;;15.10;99.90;;;;;;5003583;28;20183;-76
2024/02/16 05:30:30;;;;;;;4.07;2.07;;;15.10;99.90;;;;;;5029527;28;20622;-75
2024/02/16 05:32:58;;;;;;;2.40;1.33;;;15.10;99.90;;;;;;5033275;28;20611;-75
2024/02/16 05:35:27;;;;;;;3.97;1.60;;;15.10;99.90;;;;;;5032882;28;20192;-75
2024/02/16 05:37:55;;;;;;;4.27;1.37;;;15.10;99.90;;;;;;5021578;28;21009;-76
2024/02/16 05:40:30;;;;;;;2.37;1.30;;;15.10;99.90;;;;;;5005557;28;20612;-76
2024/02/16 05:42:59;;;;;;;1.80;1.20;;;15.20;99.90;;;;;;5014223;28;21241;-75
2024/02/16 05:45:28;;;;;;;4.80;1.00;;;15.20;99.90;;;;;;5014327;28;20596;-75
2024/02/16 05:47:53;;;;;;;2.30;1.30;;;15.20;99.90;;;;;;5032508;28;20589;-75
2024/02/16 05:50:21;;;;;;;6.10;1.53;;;15.20;99.90;;;;;;5009515;28;20618;-75
2024/02/16 05:52:46;;;;;;;7.40;1.40;;;15.20;99.90;;;;;;5002872;28;20271;-75
2024/02/16 05:55:13;;;;;;;3.87;1.83;;;15.20;99.90;;;;;;5008659;28;20628;-75
2024/02/16 05:57:39;;;;;;;2.63;1.20;;;15.20;99.90;;;;;;5032252;28;20213;-75
2024/02/16 06:00:06;;;;;;;2.77;1.20;;;15.20;99.90;;;;;;5015141;28;20608;-75
2024/02/16 06:02:35;;;;;;;3.90;1.33;;;15.20;99.90;;;;;;5032773;28;20590;-75
2024/02/16 06:05:05;;;;;;;5.53;1.70;;;15.20;99.90;;;;;;5015013;28;20588;-75
2024/02/16 06:07:30;;;;;;;2.50;1.13;;;15.20;99.90;;;;;;5006648;28;20636;-74
2024/02/16 06:09:57;;;;;;;5.23;1.50;;;15.20;99.90;;;;;;4995199;28;20640;-74
2024/02/16 06:12:23;;;;;;;4.97;1.13;;;15.20;99.90;;;;;;5003262;28;20189;-74
2024/02/16 06:14:49;;;;;;;2.77;1.13;;;15.20;99.90;;;;;;5005162;28;20580;-75
2024/02/16 06:17:16;;;;;;;4.53;1.70;;;15.20;99.90;;;;;;4980197;28;20589;-75
2024/02/16 06:19:42;;;;;;;4.47;1.80;;;15.20;99.90;;;;;;5012029;28;20795;-77
2024/02/16 06:22:09;;;;;;;4.53;1.63;;;15.10;99.90;;;;;;5014427;28;20650;-73
2024/02/16 06:24:36;;;;;;;3.27;1.00;;;15.10;99.90;;;;;;4999010;28;20581;-72
2024/02/16 06:27:03;;;;;;;2.67;1.40;;;15.10;99.90;;;;;;5013770;28;20638;-73
2024/02/16 06:29:30;;;;;;;5.20;1.90;;;15.10;99.90;;;;;;4998060;28;20620;-73
2024/02/16 06:31:56;;;;;;;6.30;1.30;;;15.10;99.90;;;;;;5014633;28;20709;-73
2024/02/16 06:34:21;;;;;;;3.60;1.40;;;15.10;99.90;;;;;;5014493;28;20611;-72
2024/02/16 06:36:47;;;;;;;3.40;1.63;;;15.10;99.90;;;;;;5006017;28;20585;-72
2024/02/16 06:39:18;;;;;;;3.87;1.20;;;15.10;99.90;;;;;;5031993;28;20296;-72
2024/02/16 06:41:47;;;;;;;3.53;2.00;;;15.20;99.90;;;;;;5032190;28;20591;-73
2024/02/16 06:44:14;;;;;;;3.43;1.63;;;15.20;99.90;;;;;;5032185;28;20585;-72
2024/02/16 06:46:40;;;;;;;4.30;1.30;;;15.20;99.90;;;;;;5013855;28;21059;-73
2024/02/16 06:49:06;;;;;;;4.43;1.30;;;15.30;99.90;;;;;;4989708;28;21070;-72
2024/02/16 06:51:31;;;;;;;2.70;1.53;;;15.30;99.90;;;;;;5032122;28;20573;-73
2024/02/16 06:53:57;;;;;;;4.50;1.20;;;15.30;99.90;;;;;;5031635;28;20599;-73
2024/02/16 06:56:23;;;;;;;5.73;1.80;;;15.30;99.90;;;;;;5013963;28;20205;-73
2024/02/16 06:58:49;;;;;;;2.73;1.43;;;15.30;99.90;;;;;;5029734;28;20553;-73
2024/02/16 07:01:16;;;;;;;2.60;1.20;;;15.30;99.90;;;;;;5024935;28;20591;-73
2024/02/16 07:03:43;;;;;;;3.23;1.70;;;15.30;99.90;;;;;;4981238;28;20178;-73
2024/02/16 07:06:10;;;;;;;4.70;1.70;;;15.30;99.90;;;;;;4993758;28;20599;-73
2024/02/16 07:08:42;;;;;;;5.20;1.40;;;15.30;99.90;;;;;;5023826;28;20656;-73
2024/02/16 07:11:11;;;;;;;3.93;1.43;;;15.30;99.90;;;;;;5002370;28;20601;-73
2024/02/16 07:13:38;;;;;;;4.70;1.50;;;15.30;99.90;;;;;;5011901;28;20651;-73
2024/02/16 07:16:06;;;;;;;3.60;1.50;;;15.30;99.90;;;;;;5011702;28;21012;-73
2024/02/16 07:18:35;;;;;;;3.90;1.80;;;15.30;99.90;;;;;;5008085;28;20997;-73
2024/02/16 07:21:02;;;;;;;2.63;1.50;;;15.30;99.90;;;;;;5031370;28;21298;-73
2024/02/16 07:23:28;;;;;;;4.77;1.33;;;15.30;99.90;;;;;;5005468;28;20592;-73
2024/02/16 07:25:56;;;;;;;6.43;1.30;;;15.30;99.90;;;;;;5013489;28;20926;-73
2024/02/16 07:28:26;;;;;;;2.80;1.37;;;15.30;99.90;;;;;;5014905;28;20628;-73
2024/02/16 07:30:51;;;;;;;3.80;1.77;;;15.30;99.90;;;;;;5004291;28;21303;-74
2024/02/16 07:33:17;;;;;;;2.93;1.33;;;15.30;99.90;;;;;;5005753;28;20600;-74
2024/02/16 07:35:44;;;;;;;3.43;1.23;;;15.40;99.90;;;;;;5021481;28;20612;-74
2024/02/16 07:38:09;;;;;;;2.70;1.50;;;15.40;99.90;;;;;;5030205;28;20628;-74
2024/02/16 07:40:35;;;;;;;3.00;1.50;;;15.40;99.90;;;;;;5013342;28;20700;-74
2024/02/16 07:43:01;;;;;;;3.23;1.43;;;15.50;99.90;;;;;;5030798;28;20581;-74
2024/02/16 07:45:27;;;;;;;3.87;1.30;;;15.50;99.90;;;;;;5007146;28;20194;-74
2024/02/16 07:47:52;;;;;;;3.03;1.33;;;15.60;99.90;;;;;;5009905;28;20640;-74
2024/02/16 07:50:20;;;;;;;2.73;1.30;;;15.60;99.90;;;;;;5000089;28;20696;-74
2024/02/16 07:52:46;;;;;;;3.53;1.93;;;15.70;99.90;;;;;;4993317;28;20611;-74
2024/02/16 07:55:12;;;;;;;3.33;1.37;;;15.70;99.90;;;;;;5021298;28;20654;-74
2024/02/16 07:57:38;;;;;;;2.63;1.40;;;15.80;99.90;;;;;;5003812;28;20589;-74
2024/02/16 08:00:06;;;;;;;5.53;1.63;;;15.80;99.90;;;;;;5022337;28;20899;-74
2024/02/16 08:02:32;;;;;;;6.03;2.00;;;15.90;99.90;;;;;;5005698;28;20197;-74
2024/02/16 08:04:58;;;;;;;3.63;1.47;;;15.90;99.90;;;;;;4991616;28;20676;-74
2024/02/16 08:07:24;;;;;;;2.47;1.10;;;15.90;99.90;;;;;;5003493;28;20993;-74
2024/02/16 08:09:50;;;;;;;2.90;1.40;;;15.90;99.90;;;;;;5006052;28;20615;-74
2024/02/16 08:12:16;;;;;;;4.17;1.83;;;15.90;99.90;;;;;;4995047;28;20755;-74
2024/02/16 08:14:42;;;;;;;2.67;1.63;;;15.90;99.90;;;;;;4995698;28;20635;-74
2024/02/16 08:17:11;;;;;;;3.80;1.40;;;16.00;99.90;;;;;;5000727;28;20605;-74
2024/02/16 08:19:38;;;;;;;3.67;1.50;;;16.00;99.90;;;;;;4987029;28;20688;-74
2024/02/16 08:22:05;;;;;;;5.10;1.50;;;16.00;99.90;;;;;;4971873;28;20634;-74
2024/02/16 08:24:34;;;;;;;3.70;1.27;;;16.00;99.90;;;;;;5021943;28;20946;-73
2024/02/16 08:27:00;;;;;;;2.23;1.67;;;16.00;99.90;;;;;;4995801;28;21173;-74
2024/02/16 08:29:26;;;;;;;4.50;2.30;;;16.00;99.90;;;;;;5029942;28;20623;-74
2024/02/16 08:31:54;;;;;;;5.87;2.80;;;16.10;99.90;;;;;;4979739;28;21224;-74
2024/02/16 08:34:26;;;;;;;4.20;1.90;;;16.10;99.90;;;;;;4999214;28;20178;-73
2024/02/16 08:36:52;;;;;;;5.20;2.07;;;16.10;99.90;;;;;;5000744;28;20654;-73
2024/02/16 08:39:20;;;;;;;4.17;1.87;;;16.10;99.90;;;;;;5011098;28;20652;-73
2024/02/16 08:41:48;;;;;;;3.23;1.60;;;16.10;99.90;;;;;;5012277;28;20604;-74
2024/02/16 08:44:14;;;;;;;2.40;1.20;;;16.10;99.90;;;;;;5023036;28;20618;-73
2024/02/16 08:46:40;;;;;;;2.83;1.07;;;16.20;99.90;;;;;;5007658;28;20599;-74
2024/02/16 08:49:06;;;;;;;2.50;1.70;;;16.20;99.90;;;;;;5016391;28;20981;-74
2024/02/16 08:51:33;;;;;;;6.63;1.40;;;16.30;99.90;;;;;;5034047;28;20599;-73
2024/02/16 08:53:59;;;;;;;3.63;1.93;;;16.30;99.90;;;;;;5014466;28;20592;-73
2024/02/16 08:56:25;;;;;;;2.30;1.57;;;16.40;99.90;;;;;;5014740;28;20585;-73
2024/02/16 08:58:51;;;;;;;7.87;1.63;;;16.40;99.90;;;;;;4993312;28;20649;-73
2024/02/16 09:01:17;;;;;;;3.70;2.00;;;16.40;99.90;;;;;;5006246;28;20267;-73
2024/02/16 09:03:43;;;;;;;4.07;1.50;;;16.40;99.90;;;;;;5025406;28;20616;-74
2024/02/16 09:06:09;;;;;;;3.00;1.90;;;16.50;99.90;;;;;;4997543;28;20602;-73
2024/02/16 09:08:35;;;;;;;4.53;1.80;;;16.50;99.90;;;;;;5008515;28;20621;-74
2024/02/16 09:11:04;;;;;;;4.00;1.73;;;16.50;99.90;;;;;;5030075;28;20585;-74
2024/02/16 09:13:35;;;;;;;3.80;1.50;;;16.60;99.90;;;;;;4981673;28;21250;-73
2024/02/16 09:16:05;;;;;;;3.00;1.33;;;16.60;99.90;;;;;;4990929;28;20592;-73
2024/02/16 09:18:31;;;;;;;3.60;1.73;;;16.70;99.90;;;;;;4991642;28;20640;-73
2024/02/16 09:20:57;;;;;;;2.93;1.50;;;16.70;99.90;;;;;;4987907;28;20573;-73
2024/02/16 09:23:23;;;;;;;5.60;1.73;;;16.80;99.90;;;;;;4979834;28;20593;-72
2024/02/16 09:25:50;;;;;;;5.20;1.63;;;16.80;99.90;;;;;;5023714;28;20178;-73
2024/02/16 09:28:18;;;;;;;3.33;1.80;;;16.80;99.90;;;;;;4994385;28;20584;-73
2024/02/16 09:30:45;;;;;;;4.80;1.90;;;16.80;99.90;;;;;;5002400;28;20585;-72
2024/02/16 09:33:11;;;;;;;3.03;1.93;;;16.70;99.90;;;;;;5024997;28;20583;-73
2024/02/16 09:35:36;;;;;;;4.43;2.50;;;16.70;99.90;;;;;;5015788;28;20675;-73
2024/02/16 09:38:02;;;;;;;3.50;1.27;;;16.70;99.90;;;;;;5014913;28;20805;-72
2024/02/16 09:40:28;;;;;;;2.73;1.80;;;16.70;99.90;;;;;;5015717;28;20181;-73
2024/02/16 09:42:54;;;;;;;2.83;1.20;;;16.70;99.90;;;;;;5006503;28;20941;-73
2024/02/16 09:45:20;;;;;;;3.80;1.57;;;16.70;99.90;;;;;;4979772;28;20548;-73
2024/02/16 09:47:49;;;;;;;4.80;2.40;;;16.80;99.90;;;;;;4995300;28;20179;-73
2024/02/16 09:50:16;;;;;;;3.57;1.60;;;16.80;99.90;;;;;;4990037;28;20197;-73
2024/02/16 09:52:50;;;;;;;4.13;1.47;;;16.80;99.90;;;;;;5011106;28;20597;-74
2024/02/16 09:55:17;;;;;;;3.10;1.40;;;16.90;99.90;;;;;;5007984;28;20589;-73
2024/02/16 09:57:44;;;;;;;5.83;1.50;;;16.90;99.90;;;;;;5022104;28;20655;-73
2024/02/16 10:00:13;;;;;;;4.53;1.60;;;17.00;99.90;;;;;;5004584;28;20629;-73
2024/02/16 10:02:48;;;;;;;3.50;1.63;;;16.90;99.90;;;;;;4991410;28;20592;-73
2024/02/16 10:05:16;;;;;;;9.20;2.03;;;16.90;99.90;;;;;;5006365;28;20684;-73
2024/02/16 10:07:43;;;;;;;4.50;1.50;;;16.90;99.90;;;;;;4989779;28;20993;-73
2024/02/16 10:10:25;;;;;;;2.63;1.27;;;16.80;99.90;;;;;;5024404;28;20655;-73
2024/02/16 10:13:04;;;;;;;3.87;1.63;;;16.80;99.90;;;;;;5009547;28;20650;-73
2024/02/16 10:15:30;;;;;;;4.93;1.93;;;16.80;99.90;;;;;;5009619;28;20603;-73
2024/02/16 10:17:59;;;;;;;3.80;1.50;;;16.70;99.90;;;;;;5005088;28;20627;-73
2024/02/16 10:20:25;;;;;;;3.10;1.50;;;16.70;99.90;;;;;;5007438;28;20626;-73
2024/02/16 10:23:03;;;;;;;4.03;1.73;;;16.70;99.90;;;;;;4990239;28;20615;-73
2024/02/16 10:25:29;;;;;;;5.93;2.30;;;16.70;99.90;;;;;;4989968;28;20596;-73
2024/02/16 10:28:03;;;;;;;4.67;2.07;;;16.70;99.90;;;;;;5021642;28;20692;-73
2024/02/16 10:30:33;;;;;;;3.80;2.03;;;16.70;99.90;;;;;;4987849;28;20264;-73
2024/02/16 10:32:59;;;;;;;3.80;1.80;;;16.70;99.90;;;;;;5008959;28;20596;-73
2024/02/16 10:35:27;;;;;;;5.73;2.13;;;16.70;99.90;;;;;;4994784;28;20604;-73
2024/02/16 10:37:54;;;;;;;2.70;2.00;;;16.70;99.90;;;;;;4994030;28;20637;-73
2024/02/16 10:40:22;;;;;;;3.30;1.57;;;16.70;99.90;;;;;;5023165;28;20631;-74
2024/02/16 10:42:51;;;;;;;2.67;1.23;;;16.70;99.90;;;;;;4989738;28;20601;-73
2024/02/16 10:45:18;;;;;;;3.87;1.80;;;16.70;99.90;;;;;;4998578;28;20584;-73
2024/02/16 10:47:44;;;;;;;5.20;1.80;;;16.70;99.90;;;;;;4998926;28;20600;-73
2024/02/16 10:50:11;;;;;;;3.27;1.50;;;16.70;99.90;;;;;;5004436;28;20617;-73
2024/02/16 10:52:41;;;;;;;5.20;1.90;;;16.70;99.90;;;;;;5008219;28;20621;-73
2024/02/16 10:55:07;;;;;;;3.67;1.70;;;16.70;99.90;;;;;;5029965;28;20595;-73
2024/02/16 10:57:36;;;;;;;4.60;1.77;;;16.70;99.90;;;;;;4994104;28;20592;-73
2024/02/16 11:00:11;;;;;;;3.07;1.50;;;16.70;99.90;;;;;;4980200;28;20617;-73
2024/02/16 11:02:56;;;;;;;6.80;1.30;;;16.60;99.90;;;;;;5020129;28;20585;-73
2024/02/16 11:05:36;;;;;;;3.60;1.60;;;16.60;99.90;;;;;;4994545;28;20585;-73
2024/02/16 11:08:02;;;;;;;3.20;1.57;;;16.70;99.90;;;;;;5002802;28;20584;-73
2024/02/16 11:10:28;;;;;;;4.33;1.90;;;16.70;99.90;;;;;;5001157;28;20597;-72
2024/02/16 11:12:55;;;;;;;3.40;1.63;;;16.70;99.90;;;;;;4994293;28;21166;-73
2024/02/16 11:15:32;;;;;;;4.30;1.60;;;16.70;99.90;;;;;;5023552;28;20224;-72
2024/02/16 11:18:01;;;;;;;3.93;2.03;;;16.70;99.90;;;;;;5030702;28;21029;-72
2024/02/16 11:20:27;;;;;;;5.20;2.93;;;16.70;99.90;;;;;;5023340;28;20600;-73
2024/02/16 11:22:56;;;;;;;14.57;7.10;;;16.70;99.90;;;;;;5014073;28;20600;-73
2024/02/16 11:25:31;;;;;;;9.10;5.33;;;16.70;99.90;;;;;;4989191;28;20588;-73
2024/02/16 11:27:58;;;;;;;15.83;10.43;;;16.70;99.90;;;;;;5014287;28;20600;-73
2024/02/16 11:30:24;;;;;;;15.40;8.33;;;16.70;99.90;;;;;;4987940;28;21308;-73
2024/02/16 11:32:51;;;;;;;10.63;7.37;;;16.80;99.90;;;;;;4998482;28;20681;-73
2024/02/16 11:35:17;;;;;;;9.33;5.60;;;16.90;99.90;;;;;;5027727;28;20616;-73
2024/02/16 11:37:45;;;;;;;9.33;5.13;;;16.90;99.90;;;;;;5021394;28;20604;-72
2024/02/16 11:40:14;;;;;;;8.30;4.93;;;17.00;99.90;;;;;;5002264;28;20661;-73
2024/02/16 11:42:43;;;;;;;5.23;3.23;;;17.10;99.90;;;;;;5021822;28;20988;-73
2024/02/16 11:45:12;;;;;;;5.90;3.50;;;17.10;99.90;;;;;;5002496;28;20655;-72
2024/02/16 11:47:38;;;;;;;5.03;3.03;;;17.20;99.90;;;;;;5005231;28;20679;-73
2024/02/16 11:50:11;;;;;;;4.80;2.83;;;17.20;99.90;;;;;;5001598;28;20624;-72
2024/02/16 11:52:39;;;;;;;5.60;2.93;;;17.30;99.90;;;;;;5007162;28;20623;-73
2024/02/16 11:55:08;;;;;;;3.70;2.33;;;17.30;99.90;;;;;;5000870;28;21241;-73
2024/02/16 11:57:35;;;;;;;7.20;2.00;;;17.30;99.90;;;;;;4972291;28;20595;-73
2024/02/16 12:00:07;;;;;;;4.60;2.90;;;17.30;99.90;;;;;;4994534;28;20629;-73
2024/02/16 12:02:34;;;;;;;6.80;3.40;;;17.30;99.90;;;;;;5033386;28;20592;-76
2024/02/16 12:05:00;;;;;;;4.97;3.53;;;17.30;99.90;;;;;;5030912;28;20589;-76
2024/02/16 12:07:27;;;;;;;6.20;3.17;;;17.30;99.90;;;;;;5000616;28;20744;-76
2024/02/16 12:10:02;;;;;;;5.90;3.57;;;17.30;99.90;;;;;;5022109;28;21044;-76
2024/02/16 12:12:28;;;;;;;8.03;3.10;;;17.20;99.90;;;;;;5021994;28;20722;-76
2024/02/16 12:14:54;;;;;;;6.50;3.33;;;17.20;99.90;;;;;;5028882;28;20638;-76
2024/02/16 12:17:20;;;;;;;4.93;3.37;;;17.20;99.90;;;;;;5016691;28;20620;-76
2024/02/16 12:19:47;;;;;;;7.27;4.10;;;17.20;99.90;;;;;;5002074;28;20659;-76
2024/02/16 12:22:18;;;;;;;7.47;4.13;;;17.30;99.90;;;;;;5000238;28;20662;-77
2024/02/16 12:24:45;;;;;;;6.10;2.60;;;17.30;99.90;;;;;;5005506;28;20588;-77
2024/02/16 12:27:11;;;;;;;10.20;3.60;;;17.30;99.90;;;;;;5010123;28;20673;-77
2024/02/16 12:29:36;;;;;;;3.83;2.40;;;17.20;99.90;;;;;;5026688;28;21229;-76
2024/02/16 12:32:02;;;;;;;5.43;2.80;;;17.20;99.90;;;;;;5023668;28;20188;-77
2024/02/16 12:34:28;;;;;;;4.40;2.30;;;17.30;99.90;;;;;;5008583;28;20541;-76
2024/02/16 12:36:53;;;;;;;5.07;2.20;;;17.30;99.90;;;;;;5005800;28;20598;-76
2024/02/16 12:39:19;;;;;;;5.97;2.47;;;17.30;99.90;;;;;;5002990;28;20213;-77
2024/02/16 12:41:48;;;;;;;4.20;2.53;;;17.30;99.90;;;;;;5020276;28;20180;-78
2024/02/16 12:44:14;;;;;;;5.97;2.40;;;17.30;99.90;;;;;;4983161;28;20205;-77